sensor_id;sensor_type;location;lat;lon;timestamp;P1;durP1;ratioP1;P2;durP2;ratioP2
40757;SDS011;26462;47.384;19.218;2023-07-13T00:02:07;8.27;;;4.95;;
40757;SDS011;26462;47.384;19.218;2023-07-13T00:04:35;10.20;;;5.40;;
40757;SDS011;26462;47.384;19.218;2023-07-13T00:07:02;6.38;;;5.20;;
40757;SDS011;26462;47.384;19.218;2023-07-13T00:09:29;10.40;;;4.88;;
40757;SDS011;26462;47.384;19.218;2023-07-13T00:11:57;8.02;;;4.43;;
40757;SDS011;26462;47.384;19.218;2023-07-13T00:14:25;10.63;;;3.75;;
40757;SDS011;26462;47.384;19.218;2023-07-13T00:16:54;8.93;;;4.20;;
40757;SDS011;26462;47.384;19.218;2023-07-13T00:19:22;9.25;;;4.10;;
40757;SDS011;26462;47.384;19.218;2023-07-13T00:21:49;9.02;;;2.70;;
40757;SDS011;26462;47.384;19.218;2023-07-13T00:24:17;9.52;;;2.50;;
40757;SDS011;26462;47.384;19.218;2023-07-13T00:26:50;6.32;;;2.10;;
40757;SDS011;26462;47.384;19.218;2023-07-13T00:29:18;13.85;;;2.85;;
40757;SDS011;26462;47.384;19.218;2023-07-13T00:31:48;4.22;;;2.42;;
40757;SDS011;26462;47.384;19.218;2023-07-13T00:34:16;3.83;;;1.63;;
40757;SDS011;26462;47.384;19.218;2023-07-13T00:36:43;3.55;;;2.22;;
40757;SDS011;26462;47.384;19.218;2023-07-13T00:39:10;5.32;;;1.58;;
40757;SDS011;26462;47.384;19.218;2023-07-13T00:41:37;4.07;;;1.65;;
40757;SDS011;26462;47.384;19.218;2023-07-13T00:44:04;9.50;;;1.73;;
40757;SDS011;26462;47.384;19.218;2023-07-13T00:46:34;4.43;;;2.15;;
40757;SDS011;26462;47.384;19.218;2023-07-13T00:49:03;5.78;;;2.00;;
40757;SDS011;26462;47.384;19.218;2023-07-13T00:51:34;4.13;;;1.95;;
40757;SDS011;26462;47.384;19.218;2023-07-13T00:54:07;5.40;;;2.40;;
40757;SDS011;26462;47.384;19.218;2023-07-13T00:56:38;4.00;;;1.88;;
40757;SDS011;26462;47.384;19.218;2023-07-13T00:59:08;6.22;;;1.80;;
40757;SDS011;26462;47.384;19.218;2023-07-13T01:01:38;6.03;;;2.28;;
40757;SDS011;26462;47.384;19.218;2023-07-13T01:04:06;5.32;;;2.03;;
40757;SDS011;26462;47.384;19.218;2023-07-13T01:06:36;5.10;;;1.98;;
40757;SDS011;26462;47.384;19.218;2023-07-13T01:09:04;5.05;;;1.83;;
40757;SDS011;26462;47.384;19.218;2023-07-13T01:11:34;4.50;;;1.90;;
40757;SDS011;26462;47.384;19.218;2023-07-13T01:14:02;5.22;;;2.13;;
40757;SDS011;26462;47.384;19.218;2023-07-13T01:16:31;4.75;;;2.10;;
40757;SDS011;26462;47.384;19.218;2023-07-13T01:18:59;3.90;;;1.98;;
40757;SDS011;26462;47.384;19.218;2023-07-13T01:21:28;5.05;;;1.95;;
40757;SDS011;26462;47.384;19.218;2023-07-13T01:23:58;3.20;;;1.92;;
40757;SDS011;26462;47.384;19.218;2023-07-13T01:26:26;3.50;;;2.22;;
40757;SDS011;26462;47.384;19.218;2023-07-13T01:28:53;4.38;;;2.30;;
40757;SDS011;26462;47.384;19.218;2023-07-13T01:31:23;6.10;;;2.65;;
40757;SDS011;26462;47.384;19.218;2023-07-13T01:33:50;3.58;;;2.08;;
40757;SDS011;26462;47.384;19.218;2023-07-13T01:36:19;2.90;;;1.80;;
40757;SDS011;26462;47.384;19.218;2023-07-13T01:38:47;7.75;;;1.90;;
40757;SDS011;26462;47.384;19.218;2023-07-13T01:41:15;5.18;;;2.00;;
40757;SDS011;26462;47.384;19.218;2023-07-13T01:43:42;5.10;;;2.22;;
40757;SDS011;26462;47.384;19.218;2023-07-13T01:46:09;3.75;;;2.17;;
40757;SDS011;26462;47.384;19.218;2023-07-13T01:48:49;5.97;;;2.47;;
40757;SDS011;26462;47.384;19.218;2023-07-13T01:51:17;4.18;;;2.03;;
40757;SDS011;26462;47.384;19.218;2023-07-13T01:53:45;6.60;;;2.22;;
40757;SDS011;26462;47.384;19.218;2023-07-13T01:56:13;6.65;;;2.20;;
40757;SDS011;26462;47.384;19.218;2023-07-13T01:58:40;7.32;;;2.15;;
40757;SDS011;26462;47.384;19.218;2023-07-13T02:01:08;3.83;;;1.92;;
40757;SDS011;26462;47.384;19.218;2023-07-13T02:03:36;4.22;;;1.92;;
40757;SDS011;26462;47.384;19.218;2023-07-13T02:06:03;3.20;;;2.10;;
40757;SDS011;26462;47.384;19.218;2023-07-13T02:08:32;5.38;;;1.85;;
40757;SDS011;26462;47.384;19.218;2023-07-13T02:11:02;7.07;;;2.47;;
40757;SDS011;26462;47.384;19.218;2023-07-13T02:13:29;6.30;;;2.67;;
40757;SDS011;26462;47.384;19.218;2023-07-13T02:15:57;5.43;;;2.00;;
40757;SDS011;26462;47.384;19.218;2023-07-13T02:18:24;5.68;;;2.13;;
40757;SDS011;26462;47.384;19.218;2023-07-13T02:20:51;5.75;;;2.05;;
40757;SDS011;26462;47.384;19.218;2023-07-13T02:23:18;5.93;;;2.97;;
40757;SDS011;26462;47.384;19.218;2023-07-13T02:25:46;8.55;;;3.13;;
40757;SDS011;26462;47.384;19.218;2023-07-13T02:28:14;4.93;;;2.20;;
40757;SDS011;26462;47.384;19.218;2023-07-13T02:30:42;6.82;;;2.60;;
40757;SDS011;26462;47.384;19.218;2023-07-13T02:33:09;5.78;;;2.05;;
40757;SDS011;26462;47.384;19.218;2023-07-13T02:35:36;6.22;;;2.97;;
40757;SDS011;26462;47.384;19.218;2023-07-13T02:38:03;4.40;;;2.30;;
40757;SDS011;26462;47.384;19.218;2023-07-13T02:40:30;3.60;;;2.08;;
40757;SDS011;26462;47.384;19.218;2023-07-13T02:42:59;5.85;;;2.80;;
40757;SDS011;26462;47.384;19.218;2023-07-13T02:45:26;5.13;;;2.72;;
40757;SDS011;26462;47.384;19.218;2023-07-13T02:47:54;4.25;;;2.20;;
40757;SDS011;26462;47.384;19.218;2023-07-13T02:50:21;5.70;;;2.67;;
40757;SDS011;26462;47.384;19.218;2023-07-13T02:52:48;4.47;;;2.40;;
40757;SDS011;26462;47.384;19.218;2023-07-13T02:55:15;5.50;;;2.38;;
40757;SDS011;26462;47.384;19.218;2023-07-13T02:57:43;5.22;;;2.20;;
40757;SDS011;26462;47.384;19.218;2023-07-13T03:00:10;4.53;;;2.45;;
40757;SDS011;26462;47.384;19.218;2023-07-13T03:02:38;6.30;;;2.45;;
40757;SDS011;26462;47.384;19.218;2023-07-13T03:05:06;3.40;;;2.10;;
40757;SDS011;26462;47.384;19.218;2023-07-13T03:07:34;7.28;;;2.50;;
40757;SDS011;26462;47.384;19.218;2023-07-13T03:10:03;7.03;;;2.85;;
40757;SDS011;26462;47.384;19.218;2023-07-13T03:12:39;5.30;;;3.10;;
40757;SDS011;26462;47.384;19.218;2023-07-13T03:15:12;4.68;;;2.55;;
40757;SDS011;26462;47.384;19.218;2023-07-13T03:17:42;8.98;;;3.63;;
40757;SDS011;26462;47.384;19.218;2023-07-13T03:20:09;7.18;;;2.60;;
40757;SDS011;26462;47.384;19.218;2023-07-13T03:22:37;4.15;;;2.58;;
40757;SDS011;26462;47.384;19.218;2023-07-13T03:25:04;3.67;;;2.63;;
40757;SDS011;26462;47.384;19.218;2023-07-13T03:27:32;7.38;;;2.60;;
40757;SDS011;26462;47.384;19.218;2023-07-13T03:29:59;6.07;;;3.13;;
40757;SDS011;26462;47.384;19.218;2023-07-13T03:32:26;5.40;;;3.03;;
40757;SDS011;26462;47.384;19.218;2023-07-13T03:34:53;4.10;;;2.53;;
40757;SDS011;26462;47.384;19.218;2023-07-13T03:37:21;8.10;;;2.83;;
40757;SDS011;26462;47.384;19.218;2023-07-13T03:39:48;8.35;;;2.35;;
40757;SDS011;26462;47.384;19.218;2023-07-13T03:42:18;4.97;;;2.30;;
40757;SDS011;26462;47.384;19.218;2023-07-13T03:44:45;6.03;;;2.53;;
40757;SDS011;26462;47.384;19.218;2023-07-13T03:47:19;4.05;;;2.40;;
40757;SDS011;26462;47.384;19.218;2023-07-13T03:49:46;5.60;;;2.72;;
40757;SDS011;26462;47.384;19.218;2023-07-13T03:52:13;4.40;;;2.88;;
40757;SDS011;26462;47.384;19.218;2023-07-13T03:54:41;5.85;;;2.70;;
40757;SDS011;26462;47.384;19.218;2023-07-13T03:57:08;5.50;;;2.67;;
40757;SDS011;26462;47.384;19.218;2023-07-13T03:59:36;4.30;;;2.33;;
40757;SDS011;26462;47.384;19.218;2023-07-13T04:02:03;7.30;;;3.15;;
40757;SDS011;26462;47.384;19.218;2023-07-13T04:04:33;4.10;;;2.55;;
40757;SDS011;26462;47.384;19.218;2023-07-13T04:07:00;5.93;;;2.58;;
40757;SDS011;26462;47.384;19.218;2023-07-13T04:09:27;3.97;;;1.98;;
40757;SDS011;26462;47.384;19.218;2023-07-13T04:11:54;7.45;;;3.10;;
40757;SDS011;26462;47.384;19.218;2023-07-13T04:14:22;4.65;;;2.33;;
40757;SDS011;26462;47.384;19.218;2023-07-13T04:16:49;3.55;;;2.05;;
40757;SDS011;26462;47.384;19.218;2023-07-13T04:19:16;4.88;;;2.42;;
40757;SDS011;26462;47.384;19.218;2023-07-13T04:21:44;5.97;;;2.25;;
40757;SDS011;26462;47.384;19.218;2023-07-13T04:24:12;6.15;;;2.70;;
40757;SDS011;26462;47.384;19.218;2023-07-13T04:26:39;5.82;;;2.55;;
40757;SDS011;26462;47.384;19.218;2023-07-13T04:29:06;9.15;;;2.67;;
40757;SDS011;26462;47.384;19.218;2023-07-13T04:31:34;6.40;;;2.00;;
40757;SDS011;26462;47.384;19.218;2023-07-13T04:34:01;7.75;;;3.67;;
40757;SDS011;26462;47.384;19.218;2023-07-13T04:36:29;9.27;;;3.50;;
40757;SDS011;26462;47.384;19.218;2023-07-13T04:38:56;6.80;;;2.10;;
40757;SDS011;26462;47.384;19.218;2023-07-13T04:41:23;8.07;;;3.63;;
40757;SDS011;26462;47.384;19.218;2023-07-13T04:43:50;11.65;;;2.75;;
40757;SDS011;26462;47.384;19.218;2023-07-13T04:46:21;8.10;;;2.13;;
40757;SDS011;26462;47.384;19.218;2023-07-13T04:48:49;9.00;;;2.30;;
40757;SDS011;26462;47.384;19.218;2023-07-13T04:51:17;9.27;;;2.47;;
40757;SDS011;26462;47.384;19.218;2023-07-13T04:53:44;9.05;;;2.55;;
40757;SDS011;26462;47.384;19.218;2023-07-13T04:56:12;7.03;;;2.33;;
40757;SDS011;26462;47.384;19.218;2023-07-13T04:58:39;14.20;;;3.50;;
40757;SDS011;26462;47.384;19.218;2023-07-13T05:01:06;7.03;;;2.72;;
40757;SDS011;26462;47.384;19.218;2023-07-13T05:03:35;7.10;;;2.95;;
40757;SDS011;26462;47.384;19.218;2023-07-13T05:06:04;6.18;;;3.00;;
40757;SDS011;26462;47.384;19.218;2023-07-13T05:08:33;8.60;;;2.72;;
40757;SDS011;26462;47.384;19.218;2023-07-13T05:11:01;7.05;;;2.20;;
40757;SDS011;26462;47.384;19.218;2023-07-13T05:13:30;5.18;;;2.58;;
40757;SDS011;26462;47.384;19.218;2023-07-13T05:16:01;6.47;;;2.92;;
40757;SDS011;26462;47.384;19.218;2023-07-13T05:18:30;7.85;;;2.50;;
40757;SDS011;26462;47.384;19.218;2023-07-13T05:20:58;9.57;;;2.90;;
40757;SDS011;26462;47.384;19.218;2023-07-13T05:23:26;4.90;;;2.03;;
40757;SDS011;26462;47.384;19.218;2023-07-13T05:25:53;4.20;;;2.05;;
40757;SDS011;26462;47.384;19.218;2023-07-13T05:28:20;3.78;;;1.40;;
40757;SDS011;26462;47.384;19.218;2023-07-13T05:30:48;5.22;;;1.73;;
40757;SDS011;26462;47.384;19.218;2023-07-13T05:33:16;7.20;;;1.92;;
40757;SDS011;26462;47.384;19.218;2023-07-13T05:35:43;3.63;;;1.42;;
40757;SDS011;26462;47.384;19.218;2023-07-13T05:38:10;6.72;;;2.38;;
40757;SDS011;26462;47.384;19.218;2023-07-13T05:40:37;4.20;;;1.55;;
40757;SDS011;26462;47.384;19.218;2023-07-13T05:43:04;6.50;;;1.52;;
40757;SDS011;26462;47.384;19.218;2023-07-13T05:45:32;4.20;;;1.52;;
40757;SDS011;26462;47.384;19.218;2023-07-13T05:47:59;5.15;;;1.52;;
40757;SDS011;26462;47.384;19.218;2023-07-13T05:50:26;5.22;;;1.65;;
40757;SDS011;26462;47.384;19.218;2023-07-13T05:52:53;4.07;;;1.45;;
40757;SDS011;26462;47.384;19.218;2023-07-13T05:55:20;4.07;;;1.77;;
40757;SDS011;26462;47.384;19.218;2023-07-13T05:57:48;4.18;;;1.50;;
40757;SDS011;26462;47.384;19.218;2023-07-13T06:00:15;2.50;;;1.00;;
40757;SDS011;26462;47.384;19.218;2023-07-13T06:02:42;1.92;;;0.75;;
40757;SDS011;26462;47.384;19.218;2023-07-13T06:05:09;2.13;;;1.15;;
40757;SDS011;26462;47.384;19.218;2023-07-13T06:07:37;3.55;;;1.10;;
40757;SDS011;26462;47.384;19.218;2023-07-13T06:10:04;2.90;;;1.13;;
40757;SDS011;26462;47.384;19.218;2023-07-13T06:12:32;2.40;;;0.90;;
40757;SDS011;26462;47.384;19.218;2023-07-13T06:14:59;3.15;;;1.10;;
40757;SDS011;26462;47.384;19.218;2023-07-13T06:17:26;1.40;;;0.73;;
40757;SDS011;26462;47.384;19.218;2023-07-13T06:19:53;1.85;;;0.68;;
40757;SDS011;26462;47.384;19.218;2023-07-13T06:22:20;1.10;;;0.80;;
40757;SDS011;26462;47.384;19.218;2023-07-13T06:24:48;1.85;;;0.50;;
40757;SDS011;26462;47.384;19.218;2023-07-13T06:27:15;1.50;;;0.50;;
40757;SDS011;26462;47.384;19.218;2023-07-13T06:29:42;2.97;;;0.85;;
40757;SDS011;26462;47.384;19.218;2023-07-13T06:32:11;1.20;;;0.55;;
40757;SDS011;26462;47.384;19.218;2023-07-13T06:34:38;2.55;;;0.77;;
40757;SDS011;26462;47.384;19.218;2023-07-13T06:37:08;2.15;;;0.82;;
40757;SDS011;26462;47.384;19.218;2023-07-13T06:39:36;1.83;;;0.63;;
40757;SDS011;26462;47.384;19.218;2023-07-13T06:42:03;5.38;;;1.13;;
40757;SDS011;26462;47.384;19.218;2023-07-13T06:44:31;1.70;;;0.80;;
40757;SDS011;26462;47.384;19.218;2023-07-13T06:46:58;2.90;;;1.10;;
40757;SDS011;26462;47.384;19.218;2023-07-13T06:49:26;3.20;;;0.60;;
40757;SDS011;26462;47.384;19.218;2023-07-13T06:51:53;2.17;;;0.60;;
40757;SDS011;26462;47.384;19.218;2023-07-13T06:54:20;3.17;;;0.68;;
40757;SDS011;26462;47.384;19.218;2023-07-13T06:56:47;1.73;;;0.70;;
40757;SDS011;26462;47.384;19.218;2023-07-13T06:59:14;2.45;;;0.50;;
40757;SDS011;26462;47.384;19.218;2023-07-13T07:01:41;2.03;;;0.70;;
40757;SDS011;26462;47.384;19.218;2023-07-13T07:04:08;3.25;;;1.15;;
40757;SDS011;26462;47.384;19.218;2023-07-13T07:06:35;1.23;;;0.68;;
40757;SDS011;26462;47.384;19.218;2023-07-13T07:09:02;1.60;;;0.40;;
40757;SDS011;26462;47.384;19.218;2023-07-13T07:11:29;1.75;;;0.52;;
40757;SDS011;26462;47.384;19.218;2023-07-13T07:13:56;2.30;;;0.60;;
40757;SDS011;26462;47.384;19.218;2023-07-13T07:16:24;2.00;;;0.60;;
40757;SDS011;26462;47.384;19.218;2023-07-13T07:18:51;2.22;;;1.83;;
40757;SDS011;26462;47.384;19.218;2023-07-13T07:21:19;2.33;;;0.47;;
40757;SDS011;26462;47.384;19.218;2023-07-13T07:23:46;2.00;;;0.57;;
40757;SDS011;26462;47.384;19.218;2023-07-13T07:26:13;1.75;;;1.15;;
40757;SDS011;26462;47.384;19.218;2023-07-13T07:28:40;1.30;;;0.60;;
40757;SDS011;26462;47.384;19.218;2023-07-13T07:31:13;1.40;;;0.50;;
40757;SDS011;26462;47.384;19.218;2023-07-13T07:33:43;1.52;;;0.65;;
40757;SDS011;26462;47.384;19.218;2023-07-13T07:36:11;1.45;;;0.70;;
40757;SDS011;26462;47.384;19.218;2023-07-13T07:38:41;1.45;;;0.75;;
40757;SDS011;26462;47.384;19.218;2023-07-13T07:41:09;2.33;;;0.63;;
40757;SDS011;26462;47.384;19.218;2023-07-13T07:43:39;2.03;;;0.95;;
40757;SDS011;26462;47.384;19.218;2023-07-13T07:46:06;2.30;;;0.52;;
40757;SDS011;26462;47.384;19.218;2023-07-13T07:48:34;2.60;;;0.70;;
40757;SDS011;26462;47.384;19.218;2023-07-13T07:51:01;3.20;;;1.35;;
40757;SDS011;26462;47.384;19.218;2023-07-13T07:53:29;1.90;;;0.82;;
40757;SDS011;26462;47.384;19.218;2023-07-13T07:55:59;2.20;;;0.80;;
40757;SDS011;26462;47.384;19.218;2023-07-13T07:58:46;1.55;;;0.90;;
40757;SDS011;26462;47.384;19.218;2023-07-13T08:01:16;2.53;;;1.15;;
40757;SDS011;26462;47.384;19.218;2023-07-13T08:03:46;3.15;;;1.13;;
40757;SDS011;26462;47.384;19.218;2023-07-13T08:06:17;1.95;;;0.75;;
40757;SDS011;26462;47.384;19.218;2023-07-13T08:08:49;1.83;;;0.80;;
40757;SDS011;26462;47.384;19.218;2023-07-13T08:11:16;1.67;;;0.70;;
40757;SDS011;26462;47.384;19.218;2023-07-13T08:13:47;2.95;;;1.55;;
40757;SDS011;26462;47.384;19.218;2023-07-13T08:16:18;2.50;;;0.80;;
40757;SDS011;26462;47.384;19.218;2023-07-13T08:18:46;3.25;;;1.30;;
40757;SDS011;26462;47.384;19.218;2023-07-13T08:21:13;1.92;;;0.80;;
40757;SDS011;26462;47.384;19.218;2023-07-13T08:23:40;2.45;;;1.17;;
40757;SDS011;26462;47.384;19.218;2023-07-13T08:26:07;1.75;;;1.00;;
40757;SDS011;26462;47.384;19.218;2023-07-13T08:28:35;1.60;;;0.90;;
40757;SDS011;26462;47.384;19.218;2023-07-13T08:31:03;1.52;;;0.77;;
40757;SDS011;26462;47.384;19.218;2023-07-13T08:33:33;2.35;;;1.17;;
40757;SDS011;26462;47.384;19.218;2023-07-13T08:36:02;3.22;;;1.50;;
40757;SDS011;26462;47.384;19.218;2023-07-13T08:38:29;3.75;;;0.90;;
40757;SDS011;26462;47.384;19.218;2023-07-13T08:40:56;3.10;;;1.20;;
40757;SDS011;26462;47.384;19.218;2023-07-13T08:43:35;1.65;;;1.00;;
40757;SDS011;26462;47.384;19.218;2023-07-13T08:46:12;1.70;;;0.80;;
40757;SDS011;26462;47.384;19.218;2023-07-13T08:48:58;1.98;;;0.90;;
40757;SDS011;26462;47.384;19.218;2023-07-13T08:56:46;1.58;;;0.82;;
40757;SDS011;26462;47.384;19.218;2023-07-13T08:59:16;2.20;;;1.00;;
40757;SDS011;26462;47.384;19.218;2023-07-13T09:07:40;2.63;;;1.27;;
40757;SDS011;26462;47.384;19.218;2023-07-13T09:15:40;3.20;;;1.02;;
40757;SDS011;26462;47.384;19.218;2023-07-13T09:18:23;2.60;;;0.90;;
40757;SDS011;26462;47.384;19.218;2023-07-13T09:21:12;2.60;;;0.95;;
40757;SDS011;26462;47.384;19.218;2023-07-13T09:23:43;5.75;;;1.20;;
40757;SDS011;26462;47.384;19.218;2023-07-13T09:26:17;6.93;;;2.42;;
40757;SDS011;26462;47.384;19.218;2023-07-13T09:28:45;2.15;;;1.00;;
40757;SDS011;26462;47.384;19.218;2023-07-13T09:31:16;4.78;;;1.13;;
40757;SDS011;26462;47.384;19.218;2023-07-13T09:33:48;5.50;;;1.40;;
40757;SDS011;26462;47.384;19.218;2023-07-13T09:38:47;1.77;;;0.85;;
40757;SDS011;26462;47.384;19.218;2023-07-13T09:44:14;1.92;;;1.30;;
40757;SDS011;26462;47.384;19.218;2023-07-13T09:46:47;2.22;;;1.00;;
40757;SDS011;26462;47.384;19.218;2023-07-13T09:49:23;2.92;;;1.02;;
40757;SDS011;26462;47.384;19.218;2023-07-13T09:51:57;1.45;;;0.90;;
40757;SDS011;26462;47.384;19.218;2023-07-13T09:54:37;3.67;;;1.42;;
40757;SDS011;26462;47.384;19.218;2023-07-13T09:57:18;2.45;;;1.20;;
40757;SDS011;26462;47.384;19.218;2023-07-13T09:59:59;3.30;;;1.05;;
40757;SDS011;26462;47.384;19.218;2023-07-13T10:02:34;3.13;;;1.20;;
40757;SDS011;26462;47.384;19.218;2023-07-13T10:05:04;3.72;;;1.10;;
40757;SDS011;26462;47.384;19.218;2023-07-13T10:07:37;3.58;;;1.17;;
40757;SDS011;26462;47.384;19.218;2023-07-13T10:10:21;1.63;;;1.15;;
40757;SDS011;26462;47.384;19.218;2023-07-13T10:15:19;2.92;;;1.13;;
40757;SDS011;26462;47.384;19.218;2023-07-13T10:17:52;3.80;;;1.40;;
40757;SDS011;26462;47.384;19.218;2023-07-13T10:20:22;1.95;;;1.10;;
40757;SDS011;26462;47.384;19.218;2023-07-13T10:25:38;1.42;;;1.15;;
40757;SDS011;26462;47.384;19.218;2023-07-13T10:28:19;2.95;;;1.50;;
40757;SDS011;26462;47.384;19.218;2023-07-13T10:30:58;2.60;;;1.35;;
40757;SDS011;26462;47.384;19.218;2023-07-13T10:33:27;3.38;;;1.80;;
40757;SDS011;26462;47.384;19.218;2023-07-13T10:35:59;2.33;;;1.65;;
40757;SDS011;26462;47.384;19.218;2023-07-13T10:38:48;5.25;;;1.60;;
40757;SDS011;26462;47.384;19.218;2023-07-13T10:41:18;2.30;;;1.20;;
40757;SDS011;26462;47.384;19.218;2023-07-13T10:43:50;2.40;;;1.50;;
40757;SDS011;26462;47.384;19.218;2023-07-13T10:46:20;1.88;;;1.00;;
40757;SDS011;26462;47.384;19.218;2023-07-13T10:48:51;3.72;;;1.33;;
40757;SDS011;26462;47.384;19.218;2023-07-13T10:51:23;2.33;;;0.80;;
40757;SDS011;26462;47.384;19.218;2023-07-13T10:56:39;3.42;;;1.35;;
40757;SDS011;26462;47.384;19.218;2023-07-13T10:59:18;2.83;;;1.02;;
40757;SDS011;26462;47.384;19.218;2023-07-13T11:02:00;2.22;;;0.82;;
40757;SDS011;26462;47.384;19.218;2023-07-13T11:04:47;1.90;;;0.93;;
40757;SDS011;26462;47.384;19.218;2023-07-13T11:07:20;2.13;;;1.00;;
40757;SDS011;26462;47.384;19.218;2023-07-13T11:09:53;1.80;;;0.82;;
40757;SDS011;26462;47.384;19.218;2023-07-13T11:19:54;2.10;;;0.95;;
40757;SDS011;26462;47.384;19.218;2023-07-13T11:22:48;1.70;;;0.73;;
40757;SDS011;26462;47.384;19.218;2023-07-13T11:38:40;1.88;;;0.43;;
40757;SDS011;26462;47.384;19.218;2023-07-13T11:44:06;1.38;;;0.70;;
40757;SDS011;26462;47.384;19.218;2023-07-13T11:46:38;1.10;;;0.45;;
40757;SDS011;26462;47.384;19.218;2023-07-13T11:49:06;1.73;;;0.68;;
40757;SDS011;26462;47.384;19.218;2023-07-13T11:51:34;1.30;;;0.45;;
40757;SDS011;26462;47.384;19.218;2023-07-13T11:56:53;1.15;;;0.50;;
40757;SDS011;26462;47.384;19.218;2023-07-13T11:59:29;3.65;;;1.02;;
40757;SDS011;26462;47.384;19.218;2023-07-13T12:01:57;0.73;;;0.40;;
40757;SDS011;26462;47.384;19.218;2023-07-13T12:04:25;1.65;;;0.63;;
40757;SDS011;26462;47.384;19.218;2023-07-13T12:06:56;1.27;;;0.60;;
40757;SDS011;26462;47.384;19.218;2023-07-13T12:09:26;1.58;;;0.50;;
40757;SDS011;26462;47.384;19.218;2023-07-13T12:11:55;1.48;;;0.55;;
40757;SDS011;26462;47.384;19.218;2023-07-13T12:14:24;1.77;;;1.38;;
40757;SDS011;26462;47.384;19.218;2023-07-13T12:16:53;3.42;;;0.63;;
40757;SDS011;26462;47.384;19.218;2023-07-13T12:19:22;1.23;;;0.55;;
40757;SDS011;26462;47.384;19.218;2023-07-13T12:21:53;1.25;;;0.60;;
40757;SDS011;26462;47.384;19.218;2023-07-13T12:24:22;1.50;;;0.70;;
40757;SDS011;26462;47.384;19.218;2023-07-13T12:26:55;1.73;;;0.60;;
40757;SDS011;26462;47.384;19.218;2023-07-13T12:29:27;1.25;;;0.60;;
40757;SDS011;26462;47.384;19.218;2023-07-13T12:31:55;1.40;;;0.65;;
40757;SDS011;26462;47.384;19.218;2023-07-13T12:34:23;1.90;;;0.63;;
40757;SDS011;26462;47.384;19.218;2023-07-13T12:36:56;1.42;;;0.73;;
40757;SDS011;26462;47.384;19.218;2023-07-13T12:39:39;1.42;;;0.60;;
40757;SDS011;26462;47.384;19.218;2023-07-13T12:42:22;1.55;;;0.47;;
40757;SDS011;26462;47.384;19.218;2023-07-13T12:44:56;1.10;;;0.50;;
40757;SDS011;26462;47.384;19.218;2023-07-13T12:47:49;1.17;;;0.63;;
40757;SDS011;26462;47.384;19.218;2023-07-13T12:50:23;2.42;;;0.60;;
40757;SDS011;26462;47.384;19.218;2023-07-13T12:52:56;1.25;;;0.50;;
40757;SDS011;26462;47.384;19.218;2023-07-13T12:55:30;1.80;;;0.77;;
40757;SDS011;26462;47.384;19.218;2023-07-13T12:58:02;3.63;;;0.63;;
40757;SDS011;26462;47.384;19.218;2023-07-13T13:00:32;0.95;;;0.65;;
40757;SDS011;26462;47.384;19.218;2023-07-13T13:05:59;4.38;;;0.80;;
40757;SDS011;26462;47.384;19.218;2023-07-13T13:08:47;1.77;;;0.60;;
40757;SDS011;26462;47.384;19.218;2023-07-13T13:11:16;1.95;;;0.88;;
40757;SDS011;26462;47.384;19.218;2023-07-13T13:13:47;0.95;;;0.65;;
40757;SDS011;26462;47.384;19.218;2023-07-13T13:16:29;3.22;;;0.63;;
40757;SDS011;26462;47.384;19.218;2023-07-13T13:19:05;2.22;;;0.70;;
40757;SDS011;26462;47.384;19.218;2023-07-13T13:21:45;1.08;;;0.60;;
40757;SDS011;26462;47.384;19.218;2023-07-13T13:24:14;2.47;;;0.65;;
40757;SDS011;26462;47.384;19.218;2023-07-13T13:26:46;1.65;;;1.00;;
40757;SDS011;26462;47.384;19.218;2023-07-13T13:29:16;2.03;;;1.23;;
40757;SDS011;26462;47.384;19.218;2023-07-13T13:31:45;1.55;;;0.88;;
40757;SDS011;26462;47.384;19.218;2023-07-13T13:34:13;3.70;;;1.00;;
40757;SDS011;26462;47.384;19.218;2023-07-13T13:36:41;1.80;;;0.82;;
40757;SDS011;26462;47.384;19.218;2023-07-13T13:41:46;2.10;;;1.10;;
40757;SDS011;26462;47.384;19.218;2023-07-13T13:44:14;3.13;;;1.20;;
40757;SDS011;26462;47.384;19.218;2023-07-13T13:46:47;2.15;;;1.13;;
40757;SDS011;26462;47.384;19.218;2023-07-13T13:49:26;2.42;;;0.98;;
40757;SDS011;26462;47.384;19.218;2023-07-13T13:51:54;1.25;;;0.90;;
40757;SDS011;26462;47.384;19.218;2023-07-13T13:54:24;2.60;;;1.08;;
40757;SDS011;26462;47.384;19.218;2023-07-13T13:56:52;2.30;;;0.95;;
40757;SDS011;26462;47.384;19.218;2023-07-13T13:59:19;1.55;;;0.70;;
40757;SDS011;26462;47.384;19.218;2023-07-13T14:01:47;1.63;;;0.93;;
40757;SDS011;26462;47.384;19.218;2023-07-13T14:04:18;1.20;;;0.80;;
40757;SDS011;26462;47.384;19.218;2023-07-13T14:06:46;1.50;;;0.80;;
40757;SDS011;26462;47.384;19.218;2023-07-13T14:09:15;2.35;;;0.60;;
40757;SDS011;26462;47.384;19.218;2023-07-13T14:11:45;1.55;;;0.80;;
40757;SDS011;26462;47.384;19.218;2023-07-13T14:16:48;2.25;;;0.82;;
40757;SDS011;26462;47.384;19.218;2023-07-13T14:19:20;1.83;;;0.60;;
40757;SDS011;26462;47.384;19.218;2023-07-13T14:21:48;1.85;;;0.80;;
40757;SDS011;26462;47.384;19.218;2023-07-13T14:24:16;2.08;;;0.68;;
40757;SDS011;26462;47.384;19.218;2023-07-13T14:26:45;2.60;;;1.02;;
40757;SDS011;26462;47.384;19.218;2023-07-13T14:29:13;1.52;;;0.73;;
40757;SDS011;26462;47.384;19.218;2023-07-13T14:31:48;1.08;;;0.70;;
40757;SDS011;26462;47.384;19.218;2023-07-13T14:34:15;1.30;;;0.70;;
40757;SDS011;26462;47.384;19.218;2023-07-13T14:36:52;1.40;;;0.95;;
40757;SDS011;26462;47.384;19.218;2023-07-13T14:39:21;3.90;;;1.13;;
40757;SDS011;26462;47.384;19.218;2023-07-13T14:41:51;2.47;;;0.73;;
40757;SDS011;26462;47.384;19.218;2023-07-13T14:44:29;1.58;;;0.65;;
40757;SDS011;26462;47.384;19.218;2023-07-13T14:46:58;4.63;;;1.15;;
40757;SDS011;26462;47.384;19.218;2023-07-13T14:49:32;2.33;;;1.00;;
40757;SDS011;26462;47.384;19.218;2023-07-13T14:52:27;4.20;;;1.27;;
40757;SDS011;26462;47.384;19.218;2023-07-13T14:54:54;2.95;;;1.45;;
40757;SDS011;26462;47.384;19.218;2023-07-13T14:57:22;3.42;;;0.98;;
40757;SDS011;26462;47.384;19.218;2023-07-13T14:59:49;4.75;;;1.00;;
40757;SDS011;26462;47.384;19.218;2023-07-13T15:02:28;1.95;;;1.02;;
40757;SDS011;26462;47.384;19.218;2023-07-13T15:04:59;6.88;;;1.33;;
40757;SDS011;26462;47.384;19.218;2023-07-13T15:07:28;2.80;;;0.90;;
40757;SDS011;26462;47.384;19.218;2023-07-13T15:09:55;2.03;;;1.08;;
40757;SDS011;26462;47.384;19.218;2023-07-13T15:12:22;1.83;;;0.85;;
40757;SDS011;26462;47.384;19.218;2023-07-13T15:14:49;1.33;;;0.85;;
40757;SDS011;26462;47.384;19.218;2023-07-13T15:19:53;4.43;;;1.15;;
40757;SDS011;26462;47.384;19.218;2023-07-13T15:22:20;2.20;;;0.82;;
40757;SDS011;26462;47.384;19.218;2023-07-13T15:24:47;4.07;;;1.00;;
40757;SDS011;26462;47.384;19.218;2023-07-13T15:27:15;1.85;;;0.90;;
40757;SDS011;26462;47.384;19.218;2023-07-13T15:29:43;2.95;;;0.95;;
40757;SDS011;26462;47.384;19.218;2023-07-13T15:32:14;2.92;;;1.02;;
40757;SDS011;26462;47.384;19.218;2023-07-13T15:34:41;1.45;;;0.90;;
40757;SDS011;26462;47.384;19.218;2023-07-13T15:37:12;1.33;;;0.93;;
40757;SDS011;26462;47.384;19.218;2023-07-13T15:39:42;4.28;;;1.30;;
40757;SDS011;26462;47.384;19.218;2023-07-13T15:42:19;2.20;;;1.25;;
40757;SDS011;26462;47.384;19.218;2023-07-13T15:44:48;2.25;;;0.80;;
40757;SDS011;26462;47.384;19.218;2023-07-13T15:47:15;1.83;;;0.93;;
40757;SDS011;26462;47.384;19.218;2023-07-13T15:49:45;2.17;;;0.90;;
40757;SDS011;26462;47.384;19.218;2023-07-13T15:52:18;3.85;;;1.10;;
40757;SDS011;26462;47.384;19.218;2023-07-13T15:54:48;1.67;;;1.17;;
40757;SDS011;26462;47.384;19.218;2023-07-13T15:57:16;1.77;;;0.80;;